sensor_id;sensor_type;location;lat;lon;timestamp;P1;durP1;ratioP1;P2;durP2;ratioP2
23282;SDS011;11810;51.178;3.878;2023-07-28T00:02:09;136.82;;;78.10;;
23282;SDS011;11810;51.178;3.878;2023-07-28T00:04:35;112.22;;;65.65;;
23282;SDS011;11810;51.178;3.878;2023-07-28T00:07:02;70.93;;;40.15;;
23282;SDS011;11810;51.178;3.878;2023-07-28T00:09:29;93.18;;;50.28;;
23282;SDS011;11810;51.178;3.878;2023-07-28T00:11:58;98.32;;;52.17;;
23282;SDS011;11810;51.178;3.878;2023-07-28T00:14:25;102.63;;;55.20;;
23282;SDS011;11810;51.178;3.878;2023-07-28T00:16:51;71.50;;;39.25;;
23282;SDS011;11810;51.178;3.878;2023-07-28T00:19:18;69.90;;;37.95;;
23282;SDS011;11810;51.178;3.878;2023-07-28T00:21:46;101.75;;;56.38;;
23282;SDS011;11810;51.178;3.878;2023-07-28T00:24:13;72.50;;;40.38;;
23282;SDS011;11810;51.178;3.878;2023-07-28T00:26:39;58.83;;;33.85;;
23282;SDS011;11810;51.178;3.878;2023-07-28T00:29:05;119.50;;;68.93;;
23282;SDS011;11810;51.178;3.878;2023-07-28T00:31:32;47.05;;;25.25;;
23282;SDS011;11810;51.178;3.878;2023-07-28T00:33:59;43.30;;;25.65;;
23282;SDS011;11810;51.178;3.878;2023-07-28T00:36:25;102.22;;;56.58;;
23282;SDS011;11810;51.178;3.878;2023-07-28T00:38:51;79.57;;;48.15;;
23282;SDS011;11810;51.178;3.878;2023-07-28T00:41:17;89.50;;;48.33;;
23282;SDS011;11810;51.178;3.878;2023-07-28T00:43:43;56.22;;;33.15;;
23282;SDS011;11810;51.178;3.878;2023-07-28T00:46:11;75.15;;;44.67;;
23282;SDS011;11810;51.178;3.878;2023-07-28T00:48:37;82.28;;;46.30;;
23282;SDS011;11810;51.178;3.878;2023-07-28T00:51:04;66.28;;;34.28;;
23282;SDS011;11810;51.178;3.878;2023-07-28T00:53:32;47.00;;;25.27;;
23282;SDS011;11810;51.178;3.878;2023-07-28T00:55:58;42.85;;;28.17;;
23282;SDS011;11810;51.178;3.878;2023-07-28T00:58:25;40.17;;;23.42;;
23282;SDS011;11810;51.178;3.878;2023-07-28T01:00:52;30.58;;;17.90;;
23282;SDS011;11810;51.178;3.878;2023-07-28T01:03:18;17.40;;;10.30;;
23282;SDS011;11810;51.178;3.878;2023-07-28T01:05:51;15.98;;;9.43;;
23282;SDS011;11810;51.178;3.878;2023-07-28T01:08:49;13.07;;;8.38;;
23282;SDS011;11810;51.178;3.878;2023-07-28T01:11:37;20.15;;;10.35;;
23282;SDS011;11810;51.178;3.878;2023-07-28T01:14:03;17.88;;;7.78;;
23282;SDS011;11810;51.178;3.878;2023-07-28T01:16:29;8.82;;;7.07;;
23282;SDS011;11810;51.178;3.878;2023-07-28T01:18:54;9.88;;;6.80;;
23282;SDS011;11810;51.178;3.878;2023-07-28T01:21:21;13.32;;;6.80;;
23282;SDS011;11810;51.178;3.878;2023-07-28T01:26:36;29.35;;;12.18;;
23282;SDS011;11810;51.178;3.878;2023-07-28T01:29:03;19.00;;;9.25;;
23282;SDS011;11810;51.178;3.878;2023-07-28T01:31:30;34.33;;;16.38;;
23282;SDS011;11810;51.178;3.878;2023-07-28T01:33:56;15.85;;;8.60;;
23282;SDS011;11810;51.178;3.878;2023-07-28T01:36:22;19.27;;;7.38;;
23282;SDS011;11810;51.178;3.878;2023-07-28T01:38:48;14.95;;;7.45;;
23282;SDS011;11810;51.178;3.878;2023-07-28T01:41:14;17.27;;;9.45;;
23282;SDS011;11810;51.178;3.878;2023-07-28T01:43:40;21.38;;;12.27;;
23282;SDS011;11810;51.178;3.878;2023-07-28T01:46:07;21.77;;;11.07;;
23282;SDS011;11810;51.178;3.878;2023-07-28T01:48:33;24.75;;;12.73;;
23282;SDS011;11810;51.178;3.878;2023-07-28T01:50:59;24.33;;;14.23;;
23282;SDS011;11810;51.178;3.878;2023-07-28T01:53:24;21.02;;;11.57;;
23282;SDS011;11810;51.178;3.878;2023-07-28T01:55:51;70.15;;;38.42;;
23282;SDS011;11810;51.178;3.878;2023-07-28T01:58:16;43.38;;;24.83;;
23282;SDS011;11810;51.178;3.878;2023-07-28T02:00:42;27.20;;;15.75;;
23282;SDS011;11810;51.178;3.878;2023-07-28T02:03:08;26.60;;;14.77;;
23282;SDS011;11810;51.178;3.878;2023-07-28T02:05:34;20.70;;;10.05;;
23282;SDS011;11810;51.178;3.878;2023-07-28T02:08:00;20.42;;;11.82;;
23282;SDS011;11810;51.178;3.878;2023-07-28T02:10:26;16.05;;;8.18;;
23282;SDS011;11810;51.178;3.878;2023-07-28T02:12:53;14.13;;;6.95;;
23282;SDS011;11810;51.178;3.878;2023-07-28T02:15:19;16.25;;;8.15;;
23282;SDS011;11810;51.178;3.878;2023-07-28T02:17:45;14.70;;;6.40;;
23282;SDS011;11810;51.178;3.878;2023-07-28T02:20:11;18.00;;;9.93;;
23282;SDS011;11810;51.178;3.878;2023-07-28T02:22:41;14.50;;;9.30;;
23282;SDS011;11810;51.178;3.878;2023-07-28T02:25:07;38.90;;;20.33;;
23282;SDS011;11810;51.178;3.878;2023-07-28T02:27:34;18.80;;;12.30;;
23282;SDS011;11810;51.178;3.878;2023-07-28T02:30:00;23.23;;;11.30;;
23282;SDS011;11810;51.178;3.878;2023-07-28T02:32:26;48.05;;;28.65;;
23282;SDS011;11810;51.178;3.878;2023-07-28T02:34:53;29.30;;;14.80;;
23282;SDS011;11810;51.178;3.878;2023-07-28T02:37:19;18.33;;;9.05;;
23282;SDS011;11810;51.178;3.878;2023-07-28T02:39:45;12.60;;;7.20;;
23282;SDS011;11810;51.178;3.878;2023-07-28T02:42:12;11.63;;;6.80;;
23282;SDS011;11810;51.178;3.878;2023-07-28T02:44:38;11.02;;;5.95;;
23282;SDS011;11810;51.178;3.878;2023-07-28T02:47:04;14.48;;;7.50;;
23282;SDS011;11810;51.178;3.878;2023-07-28T02:49:31;12.60;;;6.97;;
23282;SDS011;11810;51.178;3.878;2023-07-28T02:51:57;13.35;;;6.30;;
23282;SDS011;11810;51.178;3.878;2023-07-28T02:54:23;13.63;;;6.35;;
23282;SDS011;11810;51.178;3.878;2023-07-28T02:56:50;14.00;;;7.05;;
23282;SDS011;11810;51.178;3.878;2023-07-28T02:59:16;10.73;;;6.38;;
23282;SDS011;11810;51.178;3.878;2023-07-28T03:01:42;14.10;;;6.47;;
23282;SDS011;11810;51.178;3.878;2023-07-28T03:04:08;9.68;;;6.05;;
23282;SDS011;11810;51.178;3.878;2023-07-28T03:06:34;9.88;;;5.60;;
23282;SDS011;11810;51.178;3.878;2023-07-28T03:09:00;9.43;;;5.93;;
23282;SDS011;11810;51.178;3.878;2023-07-28T03:11:26;11.13;;;6.35;;
23282;SDS011;11810;51.178;3.878;2023-07-28T03:13:52;10.18;;;6.30;;
23282;SDS011;11810;51.178;3.878;2023-07-28T03:16:18;11.13;;;6.13;;
23282;SDS011;11810;51.178;3.878;2023-07-28T03:18:44;10.32;;;6.57;;
23282;SDS011;11810;51.178;3.878;2023-07-28T03:21:11;14.63;;;6.45;;
23282;SDS011;11810;51.178;3.878;2023-07-28T03:23:37;10.45;;;6.13;;
23282;SDS011;11810;51.178;3.878;2023-07-28T03:26:02;11.27;;;6.25;;
23282;SDS011;11810;51.178;3.878;2023-07-28T03:28:28;12.75;;;6.85;;
23282;SDS011;11810;51.178;3.878;2023-07-28T03:30:54;10.73;;;6.38;;
23282;SDS011;11810;51.178;3.878;2023-07-28T03:33:20;13.57;;;7.13;;
23282;SDS011;11810;51.178;3.878;2023-07-28T03:35:46;9.63;;;6.10;;
23282;SDS011;11810;51.178;3.878;2023-07-28T03:38:12;15.63;;;7.13;;
23282;SDS011;11810;51.178;3.878;2023-07-28T03:40:38;11.32;;;6.50;;
23282;SDS011;11810;51.178;3.878;2023-07-28T03:43:04;11.85;;;6.55;;
23282;SDS011;11810;51.178;3.878;2023-07-28T03:45:30;11.77;;;6.53;;
23282;SDS011;11810;51.178;3.878;2023-07-28T03:47:56;11.15;;;6.88;;
23282;SDS011;11810;51.178;3.878;2023-07-28T03:50:21;10.30;;;6.80;;
23282;SDS011;11810;51.178;3.878;2023-07-28T03:52:49;8.73;;;6.25;;
23282;SDS011;11810;51.178;3.878;2023-07-28T03:55:15;11.88;;;6.18;;
23282;SDS011;11810;51.178;3.878;2023-07-28T03:57:41;10.65;;;5.82;;
23282;SDS011;11810;51.178;3.878;2023-07-28T04:00:07;8.57;;;5.70;;
23282;SDS011;11810;51.178;3.878;2023-07-28T04:02:34;7.85;;;5.43;;
23282;SDS011;11810;51.178;3.878;2023-07-28T04:05:00;8.88;;;4.80;;
23282;SDS011;11810;51.178;3.878;2023-07-28T04:07:25;7.38;;;5.13;;
23282;SDS011;11810;51.178;3.878;2023-07-28T04:09:51;6.47;;;5.00;;
23282;SDS011;11810;51.178;3.878;2023-07-28T04:12:17;6.22;;;4.80;;
23282;SDS011;11810;51.178;3.878;2023-07-28T04:14:43;7.05;;;4.43;;
23282;SDS011;11810;51.178;3.878;2023-07-28T04:17:09;7.32;;;3.58;;
23282;SDS011;11810;51.178;3.878;2023-07-28T04:19:36;6.78;;;4.40;;
23282;SDS011;11810;51.178;3.878;2023-07-28T04:22:02;6.47;;;4.63;;
23282;SDS011;11810;51.178;3.878;2023-07-28T04:24:28;7.63;;;4.75;;
23282;SDS011;11810;51.178;3.878;2023-07-28T04:26:54;6.65;;;4.30;;
23282;SDS011;11810;51.178;3.878;2023-07-28T04:29:20;5.95;;;4.13;;
23282;SDS011;11810;51.178;3.878;2023-07-28T04:31:46;7.88;;;4.72;;
23282;SDS011;11810;51.178;3.878;2023-07-28T04:34:12;9.35;;;5.32;;
23282;SDS011;11810;51.178;3.878;2023-07-28T04:36:38;7.18;;;4.45;;
23282;SDS011;11810;51.178;3.878;2023-07-28T04:39:04;5.20;;;4.15;;
23282;SDS011;11810;51.178;3.878;2023-07-28T04:41:30;6.63;;;4.53;;
23282;SDS011;11810;51.178;3.878;2023-07-28T04:43:56;7.03;;;4.07;;
23282;SDS011;11810;51.178;3.878;2023-07-28T04:46:22;6.63;;;4.85;;
23282;SDS011;11810;51.178;3.878;2023-07-28T04:48:48;8.30;;;4.40;;
23282;SDS011;11810;51.178;3.878;2023-07-28T04:51:14;6.50;;;4.60;;
23282;SDS011;11810;51.178;3.878;2023-07-28T04:53:40;10.55;;;4.93;;
23282;SDS011;11810;51.178;3.878;2023-07-28T04:56:06;8.05;;;4.72;;
23282;SDS011;11810;51.178;3.878;2023-07-28T04:58:33;6.45;;;4.10;;
23282;SDS011;11810;51.178;3.878;2023-07-28T05:00:59;6.00;;;3.60;;
23282;SDS011;11810;51.178;3.878;2023-07-28T05:03:25;7.93;;;3.30;;
23282;SDS011;11810;51.178;3.878;2023-07-28T05:05:50;5.10;;;3.50;;
23282;SDS011;11810;51.178;3.878;2023-07-28T05:08:16;6.47;;;3.38;;
23282;SDS011;11810;51.178;3.878;2023-07-28T05:10:42;4.60;;;3.30;;
23282;SDS011;11810;51.178;3.878;2023-07-28T05:13:09;8.90;;;3.60;;
23282;SDS011;11810;51.178;3.878;2023-07-28T05:15:35;6.10;;;3.47;;
23282;SDS011;11810;51.178;3.878;2023-07-28T05:18:00;7.88;;;3.95;;
23282;SDS011;11810;51.178;3.878;2023-07-28T05:20:26;9.18;;;3.42;;
23282;SDS011;11810;51.178;3.878;2023-07-28T05:22:52;4.10;;;3.22;;
23282;SDS011;11810;51.178;3.878;2023-07-28T05:25:18;4.35;;;3.00;;
23282;SDS011;11810;51.178;3.878;2023-07-28T05:27:44;6.35;;;3.42;;
23282;SDS011;11810;51.178;3.878;2023-07-28T05:30:10;4.15;;;3.08;;
23282;SDS011;11810;51.178;3.878;2023-07-28T05:32:36;7.00;;;3.22;;
23282;SDS011;11810;51.178;3.878;2023-07-28T05:35:02;5.28;;;3.30;;
23282;SDS011;11810;51.178;3.878;2023-07-28T05:37:29;7.43;;;4.00;;
23282;SDS011;11810;51.178;3.878;2023-07-28T05:39:55;8.10;;;3.15;;
23282;SDS011;11810;51.178;3.878;2023-07-28T05:42:21;3.70;;;2.50;;
23282;SDS011;11810;51.178;3.878;2023-07-28T05:44:46;4.57;;;3.78;;
23282;SDS011;11810;51.178;3.878;2023-07-28T05:47:12;6.25;;;4.28;;
23282;SDS011;11810;51.178;3.878;2023-07-28T05:49:39;4.75;;;4.10;;
23282;SDS011;11810;51.178;3.878;2023-07-28T05:52:05;5.22;;;4.45;;
23282;SDS011;11810;51.178;3.878;2023-07-28T05:54:31;7.40;;;4.45;;
23282;SDS011;11810;51.178;3.878;2023-07-28T05:56:57;4.43;;;3.65;;
23282;SDS011;11810;51.178;3.878;2023-07-28T05:59:23;5.30;;;3.50;;
23282;SDS011;11810;51.178;3.878;2023-07-28T06:01:49;4.65;;;2.80;;
23282;SDS011;11810;51.178;3.878;2023-07-28T06:04:14;5.53;;;2.83;;
23282;SDS011;11810;51.178;3.878;2023-07-28T06:06:41;3.80;;;2.40;;
23282;SDS011;11810;51.178;3.878;2023-07-28T06:09:07;4.30;;;3.00;;
23282;SDS011;11810;51.178;3.878;2023-07-28T06:11:33;4.15;;;2.58;;
23282;SDS011;11810;51.178;3.878;2023-07-28T06:13:59;5.60;;;2.70;;
23282;SDS011;11810;51.178;3.878;2023-07-28T06:16:25;5.05;;;3.10;;
23282;SDS011;11810;51.178;3.878;2023-07-28T06:18:51;6.90;;;3.30;;
23282;SDS011;11810;51.178;3.878;2023-07-28T06:21:17;5.95;;;3.38;;
23282;SDS011;11810;51.178;3.878;2023-07-28T06:23:43;4.68;;;3.88;;
23282;SDS011;11810;51.178;3.878;2023-07-28T06:26:09;6.75;;;4.68;;
23282;SDS011;11810;51.178;3.878;2023-07-28T06:28:35;8.60;;;5.70;;
23282;SDS011;11810;51.178;3.878;2023-07-28T06:31:02;9.75;;;6.00;;
23282;SDS011;11810;51.178;3.878;2023-07-28T06:33:28;8.40;;;6.80;;
23282;SDS011;11810;51.178;3.878;2023-07-28T06:35:54;11.73;;;7.45;;
23282;SDS011;11810;51.178;3.878;2023-07-28T06:38:20;10.77;;;9.18;;
23282;SDS011;11810;51.178;3.878;2023-07-28T06:40:46;15.57;;;8.80;;
23282;SDS011;11810;51.178;3.878;2023-07-28T06:43:12;14.48;;;9.18;;
23282;SDS011;11810;51.178;3.878;2023-07-28T06:45:38;9.90;;;8.65;;
23282;SDS011;11810;51.178;3.878;2023-07-28T06:48:04;10.63;;;8.15;;
23282;SDS011;11810;51.178;3.878;2023-07-28T06:50:30;11.02;;;9.02;;
23282;SDS011;11810;51.178;3.878;2023-07-28T06:52:57;11.80;;;9.30;;
23282;SDS011;11810;51.178;3.878;2023-07-28T06:55:23;12.95;;;8.60;;
23282;SDS011;11810;51.178;3.878;2023-07-28T06:57:49;9.63;;;7.75;;
23282;SDS011;11810;51.178;3.878;2023-07-28T07:00:15;9.57;;;8.68;;
23282;SDS011;11810;51.178;3.878;2023-07-28T07:02:43;12.18;;;9.18;;
23282;SDS011;11810;51.178;3.878;2023-07-28T07:05:09;12.07;;;10.27;;
23282;SDS011;11810;51.178;3.878;2023-07-28T07:07:36;13.85;;;9.40;;
23282;SDS011;11810;51.178;3.878;2023-07-28T07:10:03;11.10;;;8.55;;
23282;SDS011;11810;51.178;3.878;2023-07-28T07:12:31;9.73;;;7.68;;
23282;SDS011;11810;51.178;3.878;2023-07-28T07:14:57;11.98;;;9.07;;
23282;SDS011;11810;51.178;3.878;2023-07-28T07:17:23;9.68;;;8.68;;
23282;SDS011;11810;51.178;3.878;2023-07-28T07:19:49;16.67;;;9.73;;
23282;SDS011;11810;51.178;3.878;2023-07-28T07:22:15;11.88;;;8.98;;
23282;SDS011;11810;51.178;3.878;2023-07-28T07:24:41;13.43;;;11.93;;
23282;SDS011;11810;51.178;3.878;2023-07-28T07:27:07;14.68;;;10.63;;
23282;SDS011;11810;51.178;3.878;2023-07-28T07:29:37;15.20;;;11.35;;
23282;SDS011;11810;51.178;3.878;2023-07-28T07:32:04;17.40;;;11.68;;
23282;SDS011;11810;51.178;3.878;2023-07-28T07:34:31;13.80;;;10.95;;
23282;SDS011;11810;51.178;3.878;2023-07-28T07:36:58;16.83;;;10.98;;
23282;SDS011;11810;51.178;3.878;2023-07-28T07:39:24;15.65;;;10.80;;
23282;SDS011;11810;51.178;3.878;2023-07-28T07:41:50;13.52;;;10.48;;
23282;SDS011;11810;51.178;3.878;2023-07-28T07:44:16;13.82;;;9.63;;
23282;SDS011;11810;51.178;3.878;2023-07-28T07:46:42;15.38;;;10.30;;
23282;SDS011;11810;51.178;3.878;2023-07-28T07:49:08;14.15;;;10.32;;
23282;SDS011;11810;51.178;3.878;2023-07-28T07:51:34;15.35;;;8.63;;
23282;SDS011;11810;51.178;3.878;2023-07-28T07:54:00;15.93;;;10.73;;
23282;SDS011;11810;51.178;3.878;2023-07-28T07:56:28;18.98;;;10.95;;
23282;SDS011;11810;51.178;3.878;2023-07-28T07:58:55;13.63;;;10.35;;
23282;SDS011;11810;51.178;3.878;2023-07-28T08:01:21;19.25;;;11.07;;
23282;SDS011;11810;51.178;3.878;2023-07-28T08:03:47;15.95;;;10.95;;
23282;SDS011;11810;51.178;3.878;2023-07-28T08:06:13;21.40;;;10.95;;
23282;SDS011;11810;51.178;3.878;2023-07-28T08:08:39;16.52;;;11.25;;
23282;SDS011;11810;51.178;3.878;2023-07-28T08:11:05;13.85;;;9.93;;
23282;SDS011;11810;51.178;3.878;2023-07-28T08:13:32;15.85;;;10.63;;
23282;SDS011;11810;51.178;3.878;2023-07-28T08:15:58;15.15;;;9.30;;
23282;SDS011;11810;51.178;3.878;2023-07-28T08:18:24;13.60;;;8.45;;
23282;SDS011;11810;51.178;3.878;2023-07-28T08:20:50;13.98;;;8.30;;
23282;SDS011;11810;51.178;3.878;2023-07-28T08:23:16;15.93;;;9.20;;
23282;SDS011;11810;51.178;3.878;2023-07-28T08:25:42;15.23;;;8.20;;
23282;SDS011;11810;51.178;3.878;2023-07-28T08:28:09;10.45;;;8.63;;
23282;SDS011;11810;51.178;3.878;2023-07-28T08:30:35;12.93;;;8.88;;
23282;SDS011;11810;51.178;3.878;2023-07-28T08:33:01;11.93;;;8.10;;
23282;SDS011;11810;51.178;3.878;2023-07-28T08:35:28;14.40;;;8.07;;
23282;SDS011;11810;51.178;3.878;2023-07-28T08:37:54;12.88;;;7.90;;
23282;SDS011;11810;51.178;3.878;2023-07-28T08:40:20;10.05;;;7.68;;
23282;SDS011;11810;51.178;3.878;2023-07-28T08:42:46;13.75;;;7.45;;
23282;SDS011;11810;51.178;3.878;2023-07-28T08:45:14;11.65;;;6.97;;
23282;SDS011;11810;51.178;3.878;2023-07-28T08:47:40;8.20;;;6.15;;
23282;SDS011;11810;51.178;3.878;2023-07-28T08:50:07;9.90;;;6.18;;
23282;SDS011;11810;51.178;3.878;2023-07-28T08:52:33;12.50;;;6.13;;
23282;SDS011;11810;51.178;3.878;2023-07-28T08:54:59;9.55;;;6.35;;
23282;SDS011;11810;51.178;3.878;2023-07-28T08:57:25;7.13;;;5.93;;
23282;SDS011;11810;51.178;3.878;2023-07-28T08:59:52;8.60;;;6.07;;
23282;SDS011;11810;51.178;3.878;2023-07-28T09:02:18;12.63;;;7.15;;
23282;SDS011;11810;51.178;3.878;2023-07-28T09:04:46;10.23;;;7.05;;
23282;SDS011;11810;51.178;3.878;2023-07-28T09:07:14;10.10;;;6.68;;
23282;SDS011;11810;51.178;3.878;2023-07-28T09:09:40;11.65;;;5.82;;
23282;SDS011;11810;51.178;3.878;2023-07-28T09:12:06;15.95;;;6.15;;
23282;SDS011;11810;51.178;3.878;2023-07-28T09:14:36;6.97;;;5.55;;
23282;SDS011;11810;51.178;3.878;2023-07-28T09:17:07;8.88;;;5.68;;
23282;SDS011;11810;51.178;3.878;2023-07-28T09:19:33;8.93;;;5.45;;
23282;SDS011;11810;51.178;3.878;2023-07-28T09:21:59;10.55;;;5.72;;
23282;SDS011;11810;51.178;3.878;2023-07-28T09:24:30;11.15;;;6.47;;
23282;SDS011;11810;51.178;3.878;2023-07-28T09:26:58;8.93;;;6.10;;
23282;SDS011;11810;51.178;3.878;2023-07-28T09:29:25;10.88;;;6.63;;
23282;SDS011;11810;51.178;3.878;2023-07-28T09:31:53;12.85;;;6.88;;
23282;SDS011;11810;51.178;3.878;2023-07-28T09:34:28;11.77;;;7.50;;
23282;SDS011;11810;51.178;3.878;2023-07-28T09:36:54;13.95;;;7.65;;
23282;SDS011;11810;51.178;3.878;2023-07-28T09:39:24;14.52;;;8.27;;
23282;SDS011;11810;51.178;3.878;2023-07-28T09:41:52;10.38;;;6.97;;
23282;SDS011;11810;51.178;3.878;2023-07-28T09:44:23;10.60;;;8.05;;
23282;SDS011;11810;51.178;3.878;2023-07-28T09:46:50;11.25;;;7.55;;
23282;SDS011;11810;51.178;3.878;2023-07-28T09:49:21;10.88;;;6.93;;
23282;SDS011;11810;51.178;3.878;2023-07-28T09:51:58;11.43;;;7.05;;
23282;SDS011;11810;51.178;3.878;2023-07-28T09:54:29;11.50;;;7.50;;
23282;SDS011;11810;51.178;3.878;2023-07-28T09:56:59;10.85;;;6.80;;
23282;SDS011;11810;51.178;3.878;2023-07-28T09:59:28;10.63;;;6.85;;
23282;SDS011;11810;51.178;3.878;2023-07-28T10:02:00;9.30;;;6.13;;
23282;SDS011;11810;51.178;3.878;2023-07-28T10:04:26;10.93;;;5.97;;
23282;SDS011;11810;51.178;3.878;2023-07-28T10:06:52;7.13;;;5.00;;
23282;SDS011;11810;51.178;3.878;2023-07-28T10:09:25;5.65;;;4.85;;
23282;SDS011;11810;51.178;3.878;2023-07-28T10:11:53;8.90;;;4.78;;
23282;SDS011;11810;51.178;3.878;2023-07-28T10:14:30;6.75;;;5.38;;
23282;SDS011;11810;51.178;3.878;2023-07-28T10:17:02;5.25;;;4.75;;
23282;SDS011;11810;51.178;3.878;2023-07-28T10:19:34;5.45;;;4.85;;
23282;SDS011;11810;51.178;3.878;2023-07-28T10:22:08;5.65;;;4.57;;
23282;SDS011;11810;51.178;3.878;2023-07-28T10:27:36;5.60;;;3.95;;
23282;SDS011;11810;51.178;3.878;2023-07-28T10:30:05;10.02;;;4.70;;
23282;SDS011;11810;51.178;3.878;2023-07-28T10:35:24;4.22;;;3.50;;
23282;SDS011;11810;51.178;3.878;2023-07-28T10:37:53;6.70;;;4.47;;
23282;SDS011;11810;51.178;3.878;2023-07-28T10:43:01;4.63;;;3.40;;
23282;SDS011;11810;51.178;3.878;2023-07-28T10:45:29;2.90;;;2.25;;
23282;SDS011;11810;51.178;3.878;2023-07-28T10:47:56;4.85;;;3.92;;
23282;SDS011;11810;51.178;3.878;2023-07-28T10:50:28;4.78;;;2.85;;
23282;SDS011;11810;51.178;3.878;2023-07-28T10:52:55;5.88;;;3.28;;
23282;SDS011;11810;51.178;3.878;2023-07-28T10:55:23;4.53;;;2.92;;
23282;SDS011;11810;51.178;3.878;2023-07-28T10:57:51;6.35;;;2.95;;
23282;SDS011;11810;51.178;3.878;2023-07-28T11:00:19;5.40;;;2.58;;
23282;SDS011;11810;51.178;3.878;2023-07-28T11:02:50;5.03;;;2.42;;
23282;SDS011;11810;51.178;3.878;2023-07-28T11:05:28;3.72;;;2.10;;
23282;SDS011;11810;51.178;3.878;2023-07-28T11:07:56;5.25;;;2.10;;
23282;SDS011;11810;51.178;3.878;2023-07-28T11:10:23;2.65;;;2.20;;
23282;SDS011;11810;51.178;3.878;2023-07-28T11:12:51;3.50;;;2.20;;
23282;SDS011;11810;51.178;3.878;2023-07-28T11:15:18;6.28;;;2.13;;
23282;SDS011;11810;51.178;3.878;2023-07-28T11:17:48;5.05;;;2.30;;
23282;SDS011;11810;51.178;3.878;2023-07-28T11:22:45;4.68;;;2.22;;
23282;SDS011;11810;51.178;3.878;2023-07-28T11:25:12;6.80;;;2.67;;
23282;SDS011;11810;51.178;3.878;2023-07-28T11:27:39;4.28;;;2.35;;
23282;SDS011;11810;51.178;3.878;2023-07-28T11:30:08;4.80;;;2.08;;
23282;SDS011;11810;51.178;3.878;2023-07-28T11:32:37;2.60;;;1.92;;
23282;SDS011;11810;51.178;3.878;2023-07-28T11:35:07;3.63;;;1.90;;
23282;SDS011;11810;51.178;3.878;2023-07-28T11:37:34;4.20;;;1.48;;
23282;SDS011;11810;51.178;3.878;2023-07-28T11:40:02;4.43;;;1.55;;
23282;SDS011;11810;51.178;3.878;2023-07-28T11:42:33;1.90;;;1.25;;
23282;SDS011;11810;51.178;3.878;2023-07-28T11:45:01;2.63;;;1.50;;
23282;SDS011;11810;51.178;3.878;2023-07-28T11:47:29;4.55;;;1.23;;
23282;SDS011;11810;51.178;3.878;2023-07-28T11:49:55;1.83;;;1.35;;
23282;SDS011;11810;51.178;3.878;2023-07-28T11:52:36;1.42;;;1.25;;
23282;SDS011;11810;51.178;3.878;2023-07-28T11:55:02;2.75;;;1.25;;
23282;SDS011;11810;51.178;3.878;2023-07-28T11:57:31;1.35;;;1.20;;
23282;SDS011;11810;51.178;3.878;2023-07-28T11:59:58;1.50;;;0.93;;
23282;SDS011;11810;51.178;3.878;2023-07-28T12:02:28;3.28;;;1.13;;
23282;SDS011;11810;51.178;3.878;2023-07-28T12:04:55;3.67;;;1.10;;
23282;SDS011;11810;51.178;3.878;2023-07-28T12:07:30;5.15;;;1.23;;
23282;SDS011;11810;51.178;3.878;2023-07-28T12:09:57;3.13;;;1.38;;
23282;SDS011;11810;51.178;3.878;2023-07-28T12:12:28;4.45;;;1.63;;
23282;SDS011;11810;51.178;3.878;2023-07-28T12:14:55;4.88;;;1.75;;
23282;SDS011;11810;51.178;3.878;2023-07-28T12:17:24;7.07;;;2.05;;
23282;SDS011;11810;51.178;3.878;2023-07-28T12:19:59;6.70;;;2.30;;
23282;SDS011;11810;51.178;3.878;2023-07-28T12:22:35;4.22;;;2.35;;
23282;SDS011;11810;51.178;3.878;2023-07-28T12:25:02;3.78;;;2.15;;
23282;SDS011;11810;51.178;3.878;2023-07-28T12:27:29;5.05;;;2.50;;
23282;SDS011;11810;51.178;3.878;2023-07-28T12:29:56;2.15;;;1.85;;
23282;SDS011;11810;51.178;3.878;2023-07-28T12:32:22;4.43;;;2.13;;
23282;SDS011;11810;51.178;3.878;2023-07-28T12:34:48;2.72;;;1.90;;
23282;SDS011;11810;51.178;3.878;2023-07-28T12:37:15;5.60;;;1.70;;
23282;SDS011;11810;51.178;3.878;2023-07-28T12:39:43;5.13;;;2.30;;
23282;SDS011;11810;51.178;3.878;2023-07-28T12:42:10;11.60;;;1.83;;
23282;SDS011;11810;51.178;3.878;2023-07-28T12:44:39;5.80;;;1.90;;
23282;SDS011;11810;51.178;3.878;2023-07-28T12:47:06;4.40;;;1.90;;
23282;SDS011;11810;51.178;3.878;2023-07-28T12:49:33;6.07;;;2.05;;
23282;SDS011;11810;51.178;3.878;2023-07-28T12:52:03;4.18;;;1.83;;
23282;SDS011;11810;51.178;3.878;2023-07-28T12:54:34;2.53;;;1.35;;
23282;SDS011;11810;51.178;3.878;2023-07-28T12:57:02;5.20;;;1.33;;
23282;SDS011;11810;51.178;3.878;2023-07-28T12:59:28;2.97;;;1.17;;
23282;SDS011;11810;51.178;3.878;2023-07-28T13:01:54;3.03;;;1.05;;
23282;SDS011;11810;51.178;3.878;2023-07-28T13:04:26;5.32;;;1.02;;
23282;SDS011;11810;51.178;3.878;2023-07-28T13:06:54;7.78;;;2.03;;
23282;SDS011;11810;51.178;3.878;2023-07-28T13:09:21;5.28;;;1.60;;
23282;SDS011;11810;51.178;3.878;2023-07-28T13:11:47;5.13;;;1.40;;
23282;SDS011;11810;51.178;3.878;2023-07-28T13:14:19;1.70;;;0.98;;
23282;SDS011;11810;51.178;3.878;2023-07-28T13:16:45;3.47;;;1.10;;
23282;SDS011;11810;51.178;3.878;2023-07-28T13:19:11;3.00;;;1.48;;
23282;SDS011;11810;51.178;3.878;2023-07-28T13:21:37;2.85;;;1.52;;
23282;SDS011;11810;51.178;3.878;2023-07-28T13:24:03;3.35;;;1.25;;
23282;SDS011;11810;51.178;3.878;2023-07-28T13:26:29;3.53;;;1.25;;
23282;SDS011;11810;51.178;3.878;2023-07-28T13:28:55;4.45;;;1.13;;
23282;SDS011;11810;51.178;3.878;2023-07-28T13:31:24;2.40;;;1.20;;
23282;SDS011;11810;51.178;3.878;2023-07-28T13:33:49;2.97;;;1.08;;
23282;SDS011;11810;51.178;3.878;2023-07-28T13:36:15;3.03;;;1.33;;
23282;SDS011;11810;51.178;3.878;2023-07-28T13:38:41;2.72;;;1.38;;
23282;SDS011;11810;51.178;3.878;2023-07-28T13:41:07;4.63;;;1.77;;
23282;SDS011;11810;51.178;3.878;2023-07-28T13:43:33;2.83;;;1.52;;
23282;SDS011;11810;51.178;3.878;2023-07-28T13:46:06;3.20;;;1.20;;
23282;SDS011;11810;51.178;3.878;2023-07-28T13:48:33;4.13;;;1.45;;
23282;SDS011;11810;51.178;3.878;2023-07-28T13:51:01;2.38;;;1.42;;
23282;SDS011;11810;51.178;3.878;2023-07-28T13:53:27;3.17;;;1.30;;
23282;SDS011;11810;51.178;3.878;2023-07-28T13:55:54;2.50;;;1.40;;
23282;SDS011;11810;51.178;3.878;2023-07-28T13:58:20;3.45;;;1.40;;
23282;SDS011;11810;51.178;3.878;2023-07-28T14:00:49;2.22;;;1.17;;
23282;SDS011;11810;51.178;3.878;2023-07-28T14:03:18;2.88;;;1.25;;
23282;SDS011;11810;51.178;3.878;2023-07-28T14:05:51;2.15;;;1.23;;
23282;SDS011;11810;51.178;3.878;2023-07-28T14:08:17;2.03;;;1.30;;
23282;SDS011;11810;51.178;3.878;2023-07-28T14:10:43;2.53;;;1.05;;
23282;SDS011;11810;51.178;3.878;2023-07-28T14:13:10;5.13;;;0.90;;
23282;SDS011;11810;51.178;3.878;2023-07-28T14:18:23;2.15;;;0.70;;
23282;SDS011;11810;51.178;3.878;2023-07-28T14:20:55;2.45;;;1.13;;
23282;SDS011;11810;51.178;3.878;2023-07-28T14:23:23;1.40;;;0.98;;
23282;SDS011;11810;51.178;3.878;2023-07-28T14:25:50;4.43;;;1.00;;
23282;SDS011;11810;51.178;3.878;2023-07-28T14:28:17;7.10;;;1.10;;
23282;SDS011;11810;51.178;3.878;2023-07-28T14:30:43;2.33;;;0.90;;
23282;SDS011;11810;51.178;3.878;2023-07-28T14:33:13;3.13;;;0.93;;
23282;SDS011;11810;51.178;3.878;2023-07-28T14:35:41;1.00;;;0.90;;
23282;SDS011;11810;51.178;3.878;2023-07-28T14:38:08;1.58;;;0.80;;
23282;SDS011;11810;51.178;3.878;2023-07-28T14:40:35;1.85;;;0.88;;
23282;SDS011;11810;51.178;3.878;2023-07-28T14:43:02;2.67;;;1.00;;
23282;SDS011;11810;51.178;3.878;2023-07-28T14:45:28;2.58;;;1.20;;
23282;SDS011;11810;51.178;3.878;2023-07-28T14:47:55;1.90;;;0.85;;
23282;SDS011;11810;51.178;3.878;2023-07-28T14:50:21;1.95;;;1.08;;
23282;SDS011;11810;51.178;3.878;2023-07-28T14:52:48;3.55;;;1.10;;
23282;SDS011;11810;51.178;3.878;2023-07-28T14:55:14;4.25;;;1.15;;